Time;durP1;ratioP1;P1;durP2;ratioP2;P2;SDS_P1;SDS_P2;PMS_P1;PMS_P2;Temp;Humidity;BMP_temperature;BMP_pressure;BME280_temperature;BME280_humidity;BME280_pressure;Samples;Min_cycle;Max_cycle;Signal;HPM_P1;HPM_P2
2022/04/18 00:02:05;;;;;;;10.38;7.18;;;6.60;68.20;;;;;;5086729;28;20047;-44
2022/04/18 00:04:33;;;;;;;9.20;6.10;;;6.60;68.10;;;;;;5106507;28;20020;-45
2022/04/18 00:07:02;;;;;;;10.43;6.88;;;6.50;67.60;;;;;;5095958;28;20028;-45
2022/04/18 00:09:30;;;;;;;10.13;6.55;;;6.50;68.30;;;;;;5112703;28;21681;-44
2022/04/18 00:11:57;;;;;;;9.07;6.57;;;6.40;68.50;;;;;;5113388;28;20436;-44
2022/04/18 00:14:24;;;;;;;12.15;6.63;;;6.50;69.00;;;;;;5113873;28;20036;-46
2022/04/18 00:16:54;;;;;;;8.90;6.43;;;6.40;68.70;;;;;;5095309;28;20638;-44
2022/04/18 00:19:22;;;;;;;10.02;7.00;;;6.40;69.10;;;;;;5112646;28;20454;-44
2022/04/18 00:21:49;;;;;;;10.75;7.43;;;6.40;69.30;;;;;;5094622;28;20046;-48
2022/04/18 00:24:17;;;;;;;14.73;8.82;;;6.40;69.50;;;;;;5079702;28;20039;-44
2022/04/18 00:26:44;;;;;;;10.35;5.75;;;6.40;69.80;;;;;;5104763;28;20058;-44
2022/04/18 00:29:11;;;;;;;11.20;6.78;;;6.30;70.00;;;;;;5114070;28;20035;-45
2022/04/18 00:31:38;;;;;;;9.35;6.15;;;6.40;70.20;;;;;;5113219;28;20031;-45
2022/04/18 00:34:05;;;;;;;11.15;6.68;;;6.30;70.10;;;;;;5114049;28;20024;-46
2022/04/18 00:36:32;;;;;;;10.07;5.85;;;6.30;70.00;;;;;;5112215;28;20032;-47
2022/04/18 00:38:59;;;;;;;11.35;5.90;;;6.40;70.40;;;;;;5113179;28;20488;-45
2022/04/18 00:41:26;;;;;;;9.65;6.15;;;6.40;70.80;;;;;;5113331;28;20031;-47
2022/04/18 00:43:53;;;;;;;10.93;6.13;;;6.30;70.90;;;;;;5112814;28;20444;-44
2022/04/18 00:46:22;;;;;;;8.43;6.38;;;6.30;71.10;;;;;;5093763;28;20024;-44
2022/04/18 00:48:49;;;;;;;8.90;6.35;;;6.30;71.10;;;;;;5112906;28;20034;-47
2022/04/18 00:51:20;;;;;;;8.43;5.90;;;6.30;71.40;;;;;;5094528;28;20047;-44
2022/04/18 00:53:52;;;;;;;10.52;6.28;;;6.30;71.30;;;;;;5093165;28;20050;-45
2022/04/18 00:56:21;;;;;;;8.77;6.57;;;6.30;71.10;;;;;;5113386;28;20036;-45
2022/04/18 00:58:49;;;;;;;11.10;7.43;;;6.20;71.50;;;;;;5111942;28;20035;-48
2022/04/18 01:01:17;;;;;;;10.20;6.13;;;6.20;71.70;;;;;;5112411;28;20070;-45
2022/04/18 01:03:44;;;;;;;7.93;5.85;;;6.20;71.70;;;;;;5112782;28;20126;-47
2022/04/18 01:06:12;;;;;;;8.32;5.75;;;6.20;71.90;;;;;;5113725;28;20023;-46
2022/04/18 01:08:42;;;;;;;8.60;5.88;;;6.20;71.80;;;;;;5094392;28;20363;-44
2022/04/18 01:11:09;;;;;;;12.65;6.07;;;6.20;71.10;;;;;;5114027;28;20039;-45
2022/04/18 01:13:49;;;;;;;10.05;6.45;;;6.20;71.80;;;;;;5112149;28;20038;-46
2022/04/18 01:16:16;;;;;;;9.63;5.68;;;6.20;71.70;;;;;;5113267;28;20343;-45
2022/04/18 01:18:45;;;;;;;9.05;6.15;;;6.20;71.90;;;;;;5112914;28;20024;-47
2022/04/18 01:21:12;;;;;;;8.88;6.32;;;6.20;72.10;;;;;;5112783;28;20037;-45
2022/04/18 01:23:38;;;;;;;9.52;6.45;;;6.20;71.80;;;;;;5092751;28;20073;-44
2022/04/18 01:29:03;;;;;;;10.85;6.10;;;6.10;71.70;;;;;;5111403;28;20039;-45
2022/04/18 01:31:47;;;;;;;8.82;6.22;;;6.10;71.90;;;;;;5083476;28;20032;-45
2022/04/18 01:34:14;;;;;;;9.45;6.20;;;6.10;72.10;;;;;;5085369;28;20157;-48
2022/04/18 01:36:41;;;;;;;11.65;6.95;;;6.10;72.00;;;;;;5113322;28;20036;-44
2022/04/18 01:39:07;;;;;;;14.90;7.00;;;6.10;72.30;;;;;;5092874;28;20023;-45
2022/04/18 01:41:37;;;;;;;9.77;6.40;;;6.00;72.10;;;;;;5094812;28;20036;-44
2022/04/18 01:44:05;;;;;;;10.40;6.22;;;6.00;71.80;;;;;;5112753;28;20091;-46
2022/04/18 01:46:32;;;;;;;12.20;6.45;;;6.00;71.70;;;;;;5094473;28;20080;-44
2022/04/18 01:48:58;;;;;;;11.13;5.93;;;6.00;71.80;;;;;;5094583;28;20034;-44
2022/04/18 01:51:24;;;;;;;8.18;5.82;;;6.00;71.70;;;;;;5095300;28;20028;-44
2022/04/18 01:53:54;;;;;;;9.45;6.40;;;6.00;71.60;;;;;;5114174;28;20109;-47
2022/04/18 01:56:21;;;;;;;8.40;6.63;;;6.10;70.80;;;;;;5117190;28;20027;-49
2022/04/18 01:58:48;;;;;;;8.57;5.55;;;6.10;70.60;;;;;;5115534;28;20035;-44
2022/04/18 02:01:16;;;;;;;9.40;6.25;;;6.20;70.60;;;;;;5114160;28;20059;-43
2022/04/18 02:03:45;;;;;;;11.18;6.07;;;6.20;69.70;;;;;;5116657;28;20046;-45
2022/04/18 02:06:11;;;;;;;12.50;7.45;;;6.20;70.10;;;;;;5115928;28;20024;-48
2022/04/18 02:08:37;;;;;;;12.13;6.07;;;6.20;69.60;;;;;;5115103;28;20084;-47
2022/04/18 02:11:07;;;;;;;10.93;6.80;;;6.20;69.50;;;;;;5116576;28;20047;-47
2022/04/18 02:13:37;;;;;;;9.23;5.90;;;6.30;69.30;;;;;;5115082;28;20023;-44
2022/04/18 02:16:04;;;;;;;11.23;7.10;;;6.20;69.50;;;;;;5098838;28;20165;-44
2022/04/18 02:18:32;;;;;;;12.02;7.20;;;6.20;69.70;;;;;;5115477;28;20054;-44
2022/04/18 02:20:59;;;;;;;10.93;6.45;;;6.20;69.90;;;;;;5114714;28;20511;-44
2022/04/18 02:23:25;;;;;;;8.45;6.10;;;6.20;69.70;;;;;;5115681;28;20040;-48
2022/04/18 02:25:52;;;;;;;9.98;6.70;;;6.20;69.70;;;;;;5116312;28;20040;-47
2022/04/18 02:28:18;;;;;;;9.05;6.03;;;6.20;69.90;;;;;;5081016;28;20020;-50
2022/04/18 02:30:47;;;;;;;9.93;6.15;;;6.20;69.90;;;;;;5116042;28;20042;-46
2022/04/18 02:33:14;;;;;;;9.15;5.90;;;6.10;70.70;;;;;;5114615;28;20024;-46
2022/04/18 02:35:41;;;;;;;7.85;5.95;;;6.10;70.70;;;;;;5097465;28;20035;-46
2022/04/18 02:38:07;;;;;;;8.30;6.03;;;6.00;71.00;;;;;;5115162;28;20058;-48
2022/04/18 02:40:33;;;;;;;11.07;6.15;;;5.90;71.00;;;;;;5097329;28;20055;-45
2022/04/18 02:43:02;;;;;;;8.80;6.07;;;5.90;71.30;;;;;;5096618;28;20059;-45
2022/04/18 02:45:31;;;;;;;8.70;6.10;;;5.90;71.70;;;;;;5096525;28;20032;-48
2022/04/18 02:48:00;;;;;;;9.68;5.93;;;5.90;71.60;;;;;;5109665;28;20035;-48
2022/04/18 02:50:27;;;;;;;13.05;7.07;;;5.80;72.10;;;;;;5116505;28;20084;-47
2022/04/18 02:52:54;;;;;;;9.93;6.78;;;5.80;72.30;;;;;;5116270;28;20106;-45
2022/04/18 02:55:25;;;;;;;8.95;5.88;;;5.70;73.00;;;;;;5098171;28;20035;-48
2022/04/18 02:57:55;;;;;;;10.65;6.72;;;5.60;73.30;;;;;;5115637;28;20028;-44
2022/04/18 03:00:21;;;;;;;10.35;6.30;;;5.50;73.50;;;;;;5114913;28;20352;-45
2022/04/18 03:02:48;;;;;;;9.93;6.80;;;5.50;73.50;;;;;;5109381;28;20441;-45
2022/04/18 03:05:15;;;;;;;11.15;6.50;;;5.50;73.40;;;;;;5115497;28;20028;-44
2022/04/18 03:07:44;;;;;;;9.63;6.60;;;5.40;73.50;;;;;;5115764;28;20107;-46
2022/04/18 03:10:11;;;;;;;11.10;6.37;;;5.40;73.60;;;;;;5113723;28;20062;-45
2022/04/18 03:12:37;;;;;;;10.35;6.40;;;5.30;73.60;;;;;;5116094;28;20036;-44
2022/04/18 03:15:05;;;;;;;11.18;7.22;;;5.30;74.00;;;;;;5114607;28;20031;-45
2022/04/18 03:17:31;;;;;;;11.30;7.50;;;5.30;74.00;;;;;;5113237;28;20050;-44
2022/04/18 03:19:58;;;;;;;12.07;6.97;;;5.20;74.30;;;;;;5097702;28;20023;-45
2022/04/18 03:22:25;;;;;;;9.85;7.40;;;5.20;74.20;;;;;;5115748;28;20055;-44
2022/04/18 03:24:53;;;;;;;9.20;6.18;;;5.10;74.20;;;;;;5115560;28;20027;-49
2022/04/18 03:27:20;;;;;;;10.63;6.03;;;5.20;74.50;;;;;;5113672;28;20106;-44
2022/04/18 03:29:49;;;;;;;10.77;6.38;;;5.10;74.40;;;;;;5098925;28;20440;-45
2022/04/18 03:32:16;;;;;;;10.95;7.32;;;5.10;74.40;;;;;;5114323;28;20054;-48
2022/04/18 03:34:42;;;;;;;10.00;6.82;;;5.10;74.50;;;;;;5113434;28;20152;-44
2022/04/18 03:39:55;;;;;;;9.40;6.63;;;5.00;74.40;;;;;;5113464;28;20058;-45
2022/04/18 03:42:31;;;;;;;11.35;7.22;;;5.00;74.60;;;;;;5113597;28;20046;-47
2022/04/18 03:45:00;;;;;;;10.20;7.07;;;5.00;74.70;;;;;;5112547;28;20035;-44
2022/04/18 03:47:30;;;;;;;9.90;6.87;;;4.90;74.70;;;;;;5115279;28;20561;-46
2022/04/18 03:49:56;;;;;;;;;;;4.90;75.00;;;;;;5081740;28;20278;-46
2022/04/18 03:52:24;;;;;;;12.50;8.10;;;4.90;75.30;;;;;;5114930;28;19910;-46
2022/04/18 03:54:51;;;;;;;13.07;8.68;;;4.90;75.40;;;;;;5078914;28;20071;-46
2022/04/18 03:57:18;;;;;;;12.27;7.65;;;5.00;75.50;;;;;;5113520;28;20459;-48
2022/04/18 03:59:46;;;;;;;15.60;9.43;;;4.90;75.60;;;;;;5095164;28;20126;-45
2022/04/18 04:02:13;;;;;;;14.20;8.52;;;4.90;75.70;;;;;;5095232;28;20050;-45
2022/04/18 04:04:41;;;;;;;15.90;9.60;;;5.00;75.80;;;;;;5113495;28;20023;-48
2022/04/18 04:07:07;;;;;;;14.30;9.10;;;5.00;75.90;;;;;;5114339;28;20020;-45
2022/04/18 04:09:37;;;;;;;14.70;9.48;;;5.00;76.10;;;;;;5114209;28;20039;-48
2022/04/18 04:12:05;;;;;;;12.32;7.85;;;5.00;76.20;;;;;;5114174;28;20433;-44
2022/04/18 04:14:32;;;;;;;14.27;8.48;;;5.00;76.20;;;;;;5112455;28;20032;-44
2022/04/18 04:16:59;;;;;;;14.02;9.75;;;5.00;76.50;;;;;;5113779;28;20023;-46
2022/04/18 04:19:26;;;;;;;15.52;10.15;;;5.00;76.70;;;;;;5114241;28;20019;-45
2022/04/18 04:21:53;;;;;;;14.23;8.75;;;5.10;76.60;;;;;;5095935;28;20028;-44
2022/04/18 04:24:20;;;;;;;14.10;8.30;;;5.00;77.00;;;;;;5113671;28;20439;-47
2022/04/18 04:26:48;;;;;;;9.77;7.95;;;5.10;77.00;;;;;;5112793;28;20038;-45
2022/04/18 04:29:15;;;;;;;12.13;8.70;;;5.10;77.20;;;;;;5113640;28;20328;-44
2022/04/18 04:31:43;;;;;;;12.38;8.45;;;5.00;77.30;;;;;;5113793;28;20034;-44
2022/04/18 04:34:13;;;;;;;13.07;8.70;;;5.00;77.30;;;;;;5113916;28;20180;-44
2022/04/18 04:36:43;;;;;;;15.85;9.23;;;5.00;77.20;;;;;;5103018;28;20052;-48
2022/04/18 04:39:10;;;;;;;11.43;8.40;;;5.00;77.40;;;;;;5111593;28;20436;-46
2022/04/18 04:41:38;;;;;;;11.25;7.85;;;5.00;77.30;;;;;;5114157;28;20096;-45
2022/04/18 04:44:06;;;;;;;11.52;8.02;;;5.00;77.40;;;;;;5112854;28;20024;-47
2022/04/18 04:46:34;;;;;;;10.18;6.97;;;5.00;77.10;;;;;;5095209;28;20050;-43
2022/04/18 04:49:03;;;;;;;12.48;8.15;;;5.00;77.00;;;;;;5113365;28;20023;-46
2022/04/18 04:51:30;;;;;;;10.90;7.68;;;5.10;76.70;;;;;;5075571;28;20039;-47
2022/04/18 04:53:59;;;;;;;10.35;7.50;;;5.10;76.30;;;;;;5084219;28;20031;-48
2022/04/18 04:56:28;;;;;;;11.02;8.05;;;5.20;76.40;;;;;;5112723;28;20593;-44
2022/04/18 04:58:56;;;;;;;15.80;8.93;;;5.20;76.70;;;;;;5101528;28;20042;-50
2022/04/18 05:01:22;;;;;;;13.98;10.13;;;5.20;76.80;;;;;;5112003;28;20293;-44
2022/04/18 05:03:49;;;;;;;11.70;8.50;;;5.20;76.90;;;;;;5110677;28;20042;-49
2022/04/18 05:06:16;;;;;;;11.57;7.20;;;5.20;76.90;;;;;;5112341;28;20024;-44
2022/04/18 05:08:43;;;;;;;11.52;7.70;;;5.20;77.00;;;;;;5098168;28;20096;-46
2022/04/18 05:11:11;;;;;;;13.27;8.57;;;5.20;77.00;;;;;;5111342;28;20023;-47
2022/04/18 05:13:37;;;;;;;11.88;8.25;;;5.30;77.00;;;;;;5113012;28;20031;-46
2022/04/18 05:16:04;;;;;;;13.23;8.43;;;5.30;77.00;;;;;;5112405;28;20023;-46
2022/04/18 05:18:31;;;;;;;12.45;8.55;;;5.40;77.00;;;;;;5096582;28;20027;-45
2022/04/18 05:20:58;;;;;;;12.15;8.05;;;5.60;77.00;;;;;;5094885;28;20027;-47
2022/04/18 05:23:25;;;;;;;11.77;8.05;;;5.70;76.70;;;;;;5112631;28;20657;-45
2022/04/18 05:25:52;;;;;;;12.90;7.93;;;5.70;76.70;;;;;;5112554;28;20394;-47
2022/04/18 05:28:18;;;;;;;11.48;8.02;;;5.70;77.10;;;;;;5109545;28;20070;-47
2022/04/18 05:30:45;;;;;;;12.63;7.55;;;5.80;76.90;;;;;;5111676;28;20102;-46
2022/04/18 05:33:12;;;;;;;11.88;8.60;;;5.90;76.20;;;;;;5111868;28;20059;-46
2022/04/18 05:35:39;;;;;;;12.20;7.93;;;6.00;75.90;;;;;;5113384;28;20038;-45
2022/04/18 05:38:05;;;;;;;14.43;9.02;;;6.20;75.60;;;;;;5110368;28;20067;-45
2022/04/18 05:40:31;;;;;;;12.10;8.43;;;6.30;75.10;;;;;;5098730;28;20476;-44
2022/04/18 05:43:01;;;;;;;13.50;8.18;;;6.30;74.90;;;;;;5094210;28;20142;-44
2022/04/18 05:45:28;;;;;;;14.52;10.25;;;6.50;74.20;;;;;;5090879;28;20117;-44
2022/04/18 05:47:55;;;;;;;11.60;7.75;;;6.60;73.60;;;;;;5112286;28;20043;-50
2022/04/18 05:50:22;;;;;;;14.52;9.52;;;6.80;73.10;;;;;;5111146;28;20044;-48
2022/04/18 05:52:49;;;;;;;12.80;8.70;;;7.00;72.90;;;;;;5112055;28;20035;-48
2022/04/18 05:55:17;;;;;;;13.55;9.63;;;7.20;71.90;;;;;;5094742;28;20733;-45
2022/04/18 05:57:43;;;;;;;13.63;8.45;;;7.40;72.40;;;;;;5112036;28;20438;-47
2022/04/18 06:00:11;;;;;;;13.18;9.18;;;7.50;71.60;;;;;;5112482;28;20032;-47
2022/04/18 06:02:36;;;;;;;11.30;8.45;;;7.70;71.40;;;;;;5112316;28;20636;-46
2022/04/18 06:05:06;;;;;;;14.82;8.18;;;7.90;69.40;;;;;;5110536;28;20601;-46
2022/04/18 06:07:34;;;;;;;11.75;8.68;;;8.00;69.00;;;;;;5112216;28;20111;-46
2022/04/18 06:10:02;;;;;;;11.55;8.27;;;8.20;67.30;;;;;;5111167;28;20019;-46
2022/04/18 06:12:29;;;;;;;12.95;9.10;;;8.40;66.60;;;;;;5111428;28;20023;-45
2022/04/18 06:14:57;;;;;;;13.55;8.75;;;8.50;66.50;;;;;;5112297;28;20039;-45
2022/04/18 06:17:23;;;;;;;11.57;8.13;;;8.80;66.10;;;;;;5093352;28;20432;-45
2022/04/18 06:19:50;;;;;;;13.43;10.00;;;8.90;65.50;;;;;;5109708;28;20393;-46
2022/04/18 06:22:16;;;;;;;12.75;8.90;;;9.10;64.80;;;;;;5112779;28;20351;-48
2022/04/18 06:24:45;;;;;;;11.15;7.82;;;9.10;64.40;;;;;;5109329;28;20042;-46
2022/04/18 06:27:11;;;;;;;10.50;8.10;;;9.30;64.70;;;;;;5111373;28;20031;-45
2022/04/18 06:29:39;;;;;;;12.02;8.23;;;9.40;64.70;;;;;;5111770;28;20031;-46
2022/04/18 06:32:05;;;;;;;12.20;7.45;;;9.50;64.20;;;;;;5101829;28;20024;-48
2022/04/18 06:34:31;;;;;;;11.93;8.02;;;9.60;63.60;;;;;;5105173;28;20384;-45
2022/04/18 06:36:58;;;;;;;11.18;8.25;;;9.60;63.50;;;;;;5111587;28;20024;-44
2022/04/18 06:39:24;;;;;;;13.02;8.15;;;9.70;63.50;;;;;;5112462;28;20038;-45
2022/04/18 06:41:51;;;;;;;11.98;7.65;;;9.90;62.50;;;;;;5100953;28;20032;-45
2022/04/18 06:44:20;;;;;;;12.05;7.90;;;9.90;61.20;;;;;;5111722;28;20032;-47
2022/04/18 06:46:46;;;;;;;11.27;7.30;;;10.00;60.70;;;;;;5113013;28;20050;-45
2022/04/18 06:49:13;;;;;;;14.00;8.65;;;10.10;60.50;;;;;;5115223;28;20353;-45
2022/04/18 06:51:39;;;;;;;11.52;8.27;;;10.30;61.00;;;;;;5114737;28;20423;-45
2022/04/18 06:54:09;;;;;;;10.77;7.72;;;10.40;60.70;;;;;;5109653;28;20816;-47
2022/04/18 06:59:21;;;;;;;12.18;8.93;;;10.50;60.90;;;;;;5106735;28;20043;-47
2022/04/18 07:01:48;;;;;;;10.25;6.85;;;10.60;59.60;;;;;;5088405;28;20060;-45
2022/04/18 07:04:14;;;;;;;11.45;8.23;;;10.70;60.30;;;;;;5089124;28;20028;-45
2022/04/18 07:06:41;;;;;;;10.73;7.72;;;10.80;58.30;;;;;;5095258;28;20031;-46
2022/04/18 07:09:09;;;;;;;13.05;7.40;;;10.90;58.40;;;;;;5112245;28;20102;-47
2022/04/18 07:11:39;;;;;;;10.63;7.22;;;11.00;58.90;;;;;;5109121;28;20057;-46
2022/04/18 07:14:06;;;;;;;10.43;6.75;;;11.20;57.30;;;;;;5106886;28;20047;-49
2022/04/18 07:16:37;;;;;;;11.57;7.75;;;11.10;56.70;;;;;;5107475;28;20084;-45
2022/04/18 07:19:03;;;;;;;9.02;6.35;;;11.30;57.10;;;;;;5086392;28;20449;-45
2022/04/18 07:21:30;;;;;;;13.30;6.50;;;11.50;58.00;;;;;;5102777;28;20057;-45
2022/04/18 07:23:57;;;;;;;11.05;7.30;;;11.70;56.70;;;;;;5113530;28;20423;-47
2022/04/18 07:26:23;;;;;;;10.52;7.00;;;11.80;55.60;;;;;;5092512;28;20016;-46
2022/04/18 07:28:49;;;;;;;9.32;6.88;;;11.90;55.10;;;;;;5097494;28;20019;-45
2022/04/18 07:31:16;;;;;;;10.32;6.82;;;12.10;54.60;;;;;;5114444;28;20731;-45
2022/04/18 07:33:45;;;;;;;9.93;6.90;;;12.40;54.10;;;;;;5096345;28;20090;-46
2022/04/18 07:36:12;;;;;;;12.35;8.43;;;12.70;51.50;;;;;;5114881;28;20031;-46
2022/04/18 07:38:51;;;;;;;12.80;7.43;;;13.00;51.70;;;;;;5110122;28;20413;-48
2022/04/18 07:41:22;;;;;;;11.02;6.75;;;13.30;50.70;;;;;;5109981;28;20028;-46
2022/04/18 07:43:49;;;;;;;12.30;6.50;;;13.90;49.70;;;;;;5106886;28;20059;-46
2022/04/18 07:46:18;;;;;;;10.48;7.00;;;14.40;49.30;;;;;;5078818;28;20506;-49
2022/04/18 07:48:46;;;;;;;11.20;7.55;;;14.60;48.10;;;;;;5083576;28;20077;-45
2022/04/18 07:54:02;;;;;;;10.80;7.50;;;15.40;45.50;;;;;;5110880;28;20096;-46
2022/04/18 07:56:28;;;;;;;9.07;6.45;;;15.40;45.20;;;;;;5071983;28;20059;-46
2022/04/18 07:58:56;;;;;;;8.93;6.15;;;15.60;44.90;;;;;;5091075;28;20055;-46
2022/04/18 08:01:23;;;;;;;9.27;6.53;;;16.00;44.20;;;;;;5112768;28;20622;-45
2022/04/18 08:03:50;;;;;;;8.40;6.00;;;16.40;42.90;;;;;;5096379;28;20059;-45
2022/04/18 08:06:17;;;;;;;9.60;6.75;;;16.50;44.70;;;;;;5113570;28;20059;-45
2022/04/18 08:08:44;;;;;;;8.77;6.57;;;16.90;43.00;;;;;;5087297;28;20039;-46
2022/04/18 08:11:12;;;;;;;10.70;6.18;;;17.00;42.00;;;;;;5112764;28;20382;-48
2022/04/18 08:13:43;;;;;;;10.75;6.63;;;17.10;42.00;;;;;;5094708;28;20040;-46
2022/04/18 08:16:11;;;;;;;8.10;5.78;;;17.30;40.80;;;;;;5111333;28;20424;-50
2022/04/18 08:18:42;;;;;;;10.15;6.15;;;17.30;40.70;;;;;;5107723;28;20397;-46
2022/04/18 08:21:08;;;;;;;8.02;6.53;;;17.40;41.40;;;;;;5114578;28;20039;-45
2022/04/18 08:23:35;;;;;;;9.40;6.25;;;17.80;39.60;;;;;;5114053;28;20036;-48
2022/04/18 08:26:03;;;;;;;8.75;6.50;;;17.90;40.00;;;;;;5095576;28;20023;-47
2022/04/18 08:28:30;;;;;;;12.30;6.07;;;18.20;40.60;;;;;;5113325;28;20651;-49
2022/04/18 08:30:58;;;;;;;8.50;6.13;;;18.30;39.80;;;;;;5105652;28;20081;-46
2022/04/18 08:33:29;;;;;;;8.70;5.85;;;18.40;38.70;;;;;;5105232;28;20098;-45
2022/04/18 08:35:58;;;;;;;7.28;6.13;;;18.60;39.50;;;;;;5109909;28;20118;-47
2022/04/18 08:38:26;;;;;;;8.20;5.82;;;18.60;39.50;;;;;;5088160;28;20031;-45
2022/04/18 08:41:01;;;;;;;7.25;5.75;;;18.90;38.20;;;;;;5082855;28;20530;-46
2022/04/18 08:43:29;;;;;;;9.30;6.25;;;18.90;37.90;;;;;;5073074;28;20085;-46
2022/04/18 08:45:56;;;;;;;7.60;5.80;;;18.70;38.60;;;;;;5112219;28;20028;-47
2022/04/18 08:53:56;;;;;;;9.02;5.55;;;18.20;40.30;;;;;;5090534;28;20292;-46
2022/04/18 08:56:24;;;;;;;7.47;6.15;;;18.10;40.90;;;;;;5112406;28;20039;-47
2022/04/18 08:58:51;;;;;;;8.15;5.47;;;18.00;40.50;;;;;;5106418;28;20075;-46
2022/04/18 09:01:18;;;;;;;9.15;5.63;;;18.10;40.20;;;;;;5110277;28;20054;-49
2022/04/18 09:03:49;;;;;;;9.02;6.35;;;18.30;39.90;;;;;;5110034;28;20062;-47
2022/04/18 09:06:15;;;;;;;8.38;6.50;;;18.40;40.10;;;;;;5102828;28;20717;-49
2022/04/18 09:08:54;;;;;;;8.10;5.75;;;18.70;39.80;;;;;;5097667;28;20560;-46
2022/04/18 09:11:40;;;;;;;8.63;5.43;;;18.80;39.90;;;;;;5106053;28;20040;-47
2022/04/18 09:14:24;;;;;;;7.80;5.82;;;18.90;39.60;;;;;;5111780;28;20035;-47
2022/04/18 09:16:52;;;;;;;7.65;5.63;;;18.80;40.10;;;;;;5094342;28;20083;-46
2022/04/18 09:19:19;;;;;;;8.77;6.03;;;18.80;39.90;;;;;;5101697;28;20032;-47
2022/04/18 09:22:03;;;;;;;7.03;5.22;;;18.70;38.90;;;;;;5104721;28;20036;-45
2022/04/18 09:24:34;;;;;;;7.07;4.97;;;18.60;37.80;;;;;;5102393;28;20019;-46
2022/04/18 09:27:12;;;;;;;6.82;4.60;;;18.60;39.60;;;;;;5072773;28;20520;-47
2022/04/18 09:29:40;;;;;;;7.00;5.25;;;18.50;39.70;;;;;;5102333;28;20056;-48
2022/04/18 09:32:24;;;;;;;7.93;5.57;;;18.70;39.00;;;;;;5087287;28;20108;-45
2022/04/18 09:35:01;;;;;;;7.38;5.32;;;18.60;37.80;;;;;;5097268;28;20095;-48
2022/04/18 09:37:33;;;;;;;7.80;5.10;;;18.50;40.70;;;;;;5095197;28;20031;-45
2022/04/18 09:40:02;;;;;;;6.10;4.50;;;18.90;37.30;;;;;;5088265;28;20028;-45
2022/04/18 09:42:32;;;;;;;6.30;4.28;;;19.00;38.00;;;;;;5092530;28;20074;-45
2022/04/18 09:45:01;;;;;;;7.80;4.53;;;18.90;37.50;;;;;;5087810;28;20059;-45
2022/04/18 09:47:34;;;;;;;6.32;5.00;;;19.00;38.70;;;;;;5093913;28;20332;-45
2022/04/18 09:50:58;;;;;;;8.10;5.22;;;18.90;39.80;;;;;;5087565;28;20081;-47
2022/04/18 09:53:00;;;;;;;6.63;4.55;;;19.00;39.10;;;;;;5077418;28;20044;-47
2022/04/18 09:55:29;;;;;;;7.15;4.40;;;19.40;38.10;;;;;;5092862;28;20061;-46
2022/04/18 09:58:07;;;;;;;8.43;4.65;;;19.40;39.00;;;;;;5092632;28;20394;-46
2022/04/18 10:00:35;;;;;;;6.57;3.95;;;19.40;36.30;;;;;;5103316;28;20047;-47
2022/04/18 10:03:04;;;;;;;5.90;4.18;;;19.60;38.10;;;;;;5111910;28;20146;-45
2022/04/18 10:05:32;;;;;;;6.10;3.25;;;19.90;37.30;;;;;;5074867;28;20451;-46
2022/04/18 10:08:04;;;;;;;5.47;3.70;;;19.80;35.50;;;;;;5111304;28;20080;-47
2022/04/18 10:10:41;;;;;;;4.97;3.53;;;19.80;34.60;;;;;;5111722;28;20085;-45
2022/04/18 10:13:11;;;;;;;9.85;3.35;;;19.80;37.70;;;;;;5114733;28;20077;-46
2022/04/18 10:15:44;;;;;;;5.60;3.15;;;20.00;36.20;;;;;;5115365;28;20032;-47
2022/04/18 10:18:15;;;;;;;5.50;2.85;;;19.70;34.00;;;;;;5114801;28;20020;-45
2022/04/18 10:21:18;;;;;;;6.38;3.80;;;19.30;35.00;;;;;;5116523;28;20032;-47
2022/04/18 10:24:22;;;;;;;5.47;2.90;;;19.40;36.80;;;;;;5093663;28;20448;-47
2022/04/18 10:27:31;;;;;;;6.75;2.85;;;19.40;34.50;;;;;;5115165;28;20028;-48
2022/04/18 10:30:00;;;;;;;;;;;19.40;34.50;;;;;;5097710;28;20035;-47
2022/04/18 10:32:38;;;;;;;;;;;19.30;35.90;;;;;;5114677;28;19916;-47
2022/04/18 10:35:06;;;;;;;5.78;3.88;;;19.40;35.90;;;;;;5114705;28;19926;-45
2022/04/18 10:37:40;;;;;;;6.95;3.50;;;19.40;35.90;;;;;;5114209;28;20093;-45
2022/04/18 10:40:10;;;;;;;4.60;2.80;;;19.20;35.50;;;;;;5096349;28;20085;-46
2022/04/18 10:42:41;;;;;;;4.63;2.97;;;19.40;35.30;;;;;;5114148;28;20043;-47
2022/04/18 10:45:24;;;;;;;4.68;2.95;;;19.30;37.40;;;;;;5090185;28;20028;-47
2022/04/18 10:47:59;;;;;;;5.10;3.30;;;19.40;34.30;;;;;;5088462;28;20119;-45
2022/04/18 10:50:43;;;;;;;5.47;3.42;;;19.40;35.10;;;;;;5103346;28;20098;-48
2022/04/18 10:53:36;;;;;;;5.40;3.50;;;19.50;33.70;;;;;;5114846;28;20036;-45
2022/04/18 10:56:05;;;;;;;5.78;3.40;;;19.30;34.70;;;;;;5115120;28;20111;-49
2022/04/18 10:58:37;;;;;;;4.60;2.97;;;19.50;34.70;;;;;;5114702;28;20107;-46
2022/04/18 11:01:09;;;;;;;4.40;3.10;;;19.60;36.90;;;;;;5097438;28;20047;-45
2022/04/18 11:03:57;;;;;;;7.70;3.80;;;19.90;35.90;;;;;;5093656;28;20032;-46
2022/04/18 11:06:25;;;;;;;6.57;3.42;;;19.90;33.90;;;;;;5070912;28;20111;-45
2022/04/18 11:09:16;;;;;;;7.63;3.67;;;19.70;34.10;;;;;;5084141;28;20046;-45
2022/04/18 11:12:15;;;;;;;6.95;3.13;;;19.50;33.90;;;;;;5076871;28;20482;-45
2022/04/18 11:14:56;;;;;;;8.68;3.42;;;19.40;36.50;;;;;;5088172;28;20043;-45
2022/04/18 11:17:41;;;;;;;5.32;3.33;;;19.40;33.90;;;;;;5065974;28;20063;-45
2022/04/18 11:20:33;;;;;;;5.25;3.33;;;19.20;33.70;;;;;;5072503;28;20028;-47
2022/04/18 11:23:26;;;;;;;4.90;2.58;;;19.30;32.50;;;;;;5086995;28;20063;-46
2022/04/18 11:26:15;;;;;;;5.35;2.42;;;19.20;31.70;;;;;;5087936;28;20065;-45
2022/04/18 11:28:41;;;;;;;5.18;2.72;;;19.20;31.30;;;;;;5070870;28;20032;-48
2022/04/18 11:31:09;;;;;;;3.85;2.63;;;19.10;31.30;;;;;;5069847;28;20031;-50
2022/04/18 11:33:43;;;;;;;11.52;4.05;;;19.00;33.70;;;;;;5045033;28;20021;-47
2022/04/18 11:36:12;;;;;;;7.53;2.83;;;19.20;33.20;;;;;;5053315;28;20078;-48
2022/04/18 11:38:38;;;;;;;4.70;2.80;;;19.10;34.10;;;;;;5039955;28;20425;-45
2022/04/18 11:41:14;;;;;;;8.35;3.63;;;19.20;33.00;;;;;;5069471;28;20020;-50
2022/04/18 11:43:41;;;;;;;6.47;3.38;;;19.20;34.40;;;;;;5073048;28;20508;-45
2022/04/18 11:46:11;;;;;;;5.47;2.75;;;19.10;33.70;;;;;;5085603;28;20033;-45
2022/04/18 11:48:38;;;;;;;4.80;3.03;;;19.10;32.70;;;;;;5089612;28;20026;-46
2022/04/18 11:51:06;;;;;;;6.00;3.15;;;18.90;34.80;;;;;;5085241;28;20127;-48
2022/04/18 11:53:32;;;;;;;4.53;2.92;;;18.90;33.00;;;;;;5068454;28;20410;-47
2022/04/18 11:56:08;;;;;;;5.82;3.65;;;18.90;33.40;;;;;;5076688;28;20040;-46
2022/04/18 11:58:44;;;;;;;4.60;2.75;;;18.90;34.10;;;;;;5089099;28;20424;-49
2022/04/18 12:06:49;;;;;;;4.90;2.35;;;18.60;32.70;;;;;;5114088;28;20035;-47
2022/04/18 12:09:26;;;;;;;5.63;3.13;;;18.70;32.40;;;;;;5082923;28;20028;-45
2022/04/18 12:11:58;;;;;;;4.72;3.17;;;18.80;33.60;;;;;;5107800;28;20063;-45
2022/04/18 12:14:35;;;;;;;5.63;3.63;;;18.90;31.10;;;;;;5105681;28;20036;-45
2022/04/18 12:17:09;;;;;;;9.18;3.47;;;18.90;32.80;;;;;;5099288;28;20032;-45
2022/04/18 12:19:35;;;;;;;5.53;2.80;;;18.70;32.20;;;;;;5110822;28;20027;-45
2022/04/18 12:22:03;;;;;;;5.32;3.22;;;18.60;31.50;;;;;;5110085;28;20030;-45
2022/04/18 12:24:41;;;;;;;4.85;3.13;;;18.60;35.10;;;;;;5098190;28;20027;-45
2022/04/18 12:27:07;;;;;;;4.85;3.08;;;18.60;34.20;;;;;;5094327;28;20039;-45
2022/04/18 12:29:35;;;;;;;5.90;3.25;;;18.90;31.30;;;;;;5093675;28;20024;-45
2022/04/18 12:32:02;;;;;;;5.20;3.67;;;18.70;31.40;;;;;;5102885;28;20040;-47
2022/04/18 12:34:30;;;;;;;5.38;3.58;;;18.60;31.50;;;;;;5104442;28;20100;-46
2022/04/18 12:36:59;;;;;;;4.32;2.80;;;18.60;31.20;;;;;;5110587;28;20023;-45
2022/04/18 12:39:27;;;;;;;4.15;2.28;;;18.60;31.70;;;;;;5066239;28;20068;-47
2022/04/18 12:42:06;;;;;;;9.63;3.03;;;18.50;30.80;;;;;;5084404;28;20497;-45
2022/04/18 12:44:33;;;;;;;5.60;3.20;;;18.50;31.70;;;;;;5112387;28;20114;-46
2022/04/18 12:47:20;;;;;;;5.15;2.97;;;18.50;32.20;;;;;;5110729;28;20081;-48
2022/04/18 12:50:23;;;;;;;6.75;3.28;;;18.40;31.50;;;;;;5109560;28;20035;-50
2022/04/18 12:52:52;;;;;;;6.28;3.33;;;18.40;32.90;;;;;;5018871;28;20029;-46
2022/04/18 12:55:30;;;;;;;6.60;3.53;;;18.40;32.50;;;;;;5030101;28;20107;-45
2022/04/18 12:57:58;;;;;;;7.35;3.38;;;18.30;31.90;;;;;;5029214;28;20435;-45
2022/04/18 13:00:34;;;;;;;4.55;2.95;;;18.40;31.80;;;;;;4997631;28;20594;-46
2022/04/18 13:03:20;;;;;;;5.25;3.17;;;18.40;33.50;;;;;;5006443;28;20046;-50
2022/04/18 13:05:50;;;;;;;4.93;2.65;;;18.40;31.50;;;;;;4996606;28;20412;-46
2022/04/18 13:08:17;;;;;;;5.90;3.33;;;18.30;29.50;;;;;;4995102;28;20045;-50
2022/04/18 13:10:45;;;;;;;5.40;2.45;;;18.20;31.30;;;;;;5010143;28;20287;-45
2022/04/18 13:13:19;;;;;;;5.30;3.00;;;18.20;32.90;;;;;;4998001;28;20120;-45
2022/04/18 13:15:46;;;;;;;6.57;3.03;;;18.20;33.60;;;;;;5028209;28;20029;-48
2022/04/18 13:18:21;;;;;;;5.70;3.40;;;18.20;34.20;;;;;;5014143;28;20139;-45
2022/04/18 13:20:47;;;;;;;4.80;3.17;;;18.30;33.30;;;;;;5012597;28;20187;-47
2022/04/18 13:23:19;;;;;;;5.25;3.33;;;18.30;33.00;;;;;;5029987;28;20037;-47
2022/04/18 13:25:47;;;;;;;5.43;3.70;;;18.30;34.60;;;;;;5017085;28;20053;-46